createdAt,value
2019-01-19T00:00:29.019Z,23.27
2019-01-19T00:02:00.690Z,23.92
2019-01-19T00:03:53.977Z,23.77
2019-01-19T00:05:37.831Z,22.30
2019-01-19T00:07:08.828Z,20.92
2019-01-19T00:08:23.253Z,21.95
2019-01-19T00:09:57.317Z,23.87
2019-01-19T00:11:45.124Z,21.87
2019-01-19T00:13:43.256Z,21.17
2019-01-19T00:14:56.235Z,22.70
2019-01-19T00:16:26.225Z,22.60
2019-01-19T00:17:58.964Z,22.77
2019-01-19T00:19:43.918Z,22.07
2019-01-19T00:21:25.343Z,23.02
2019-01-19T00:23:10.469Z,23.20
2019-01-19T00:24:41.157Z,22.30
2019-01-19T00:26:35.430Z,24.10
2019-01-19T00:28:02.442Z,22.48
2019-01-19T00:29:34.008Z,23.90
2019-01-19T00:30:56.764Z,23.27
2019-01-19T00:32:08.204Z,24.18
2019-01-19T00:33:36.871Z,22.32
2019-01-19T00:35:17.803Z,21.68
2019-01-19T00:36:56.348Z,23.55
2019-01-19T00:38:32.574Z,23.55
2019-01-19T00:40:00.735Z,21.55
2019-01-19T00:42:08.016Z,22.60
2019-01-19T00:43:38.096Z,21.75
2019-01-19T00:45:36.149Z,21.25
2019-01-19T00:47:18.117Z,23.92
2019-01-19T00:48:50.930Z,22.62
2019-01-19T00:50:10.601Z,22.07
2019-01-19T00:51:51.073Z,23.12
2019-01-19T00:53:21.592Z,23.25
2019-01-19T00:54:38.532Z,23.40
2019-01-19T00:56:01.962Z,23.02
2019-01-19T00:57:18.186Z,23.32
2019-01-19T00:58:44.996Z,23.77
2019-01-19T00:59:55.215Z,22.85
2019-01-19T01:01:35.354Z,23.18
2019-01-19T01:03:19.845Z,22.60
2019-01-19T01:04:35.507Z,22.60
2019-01-19T01:06:21.856Z,22.00
2019-01-19T01:07:53.625Z,21.48
2019-01-19T01:09:38.964Z,22.07
2019-01-19T01:10:55.259Z,21.15
2019-01-19T01:12:11.389Z,21.95
2019-01-19T01:13:45.127Z,22.22
2019-01-19T01:15:25.115Z,21.35
2019-01-19T01:17:00.740Z,21.55
2019-01-19T01:18:55.977Z,21.48
2019-01-19T01:20:31.121Z,20.90
2019-01-19T01:22:32.402Z,21.40
2019-01-19T01:23:58.922Z,22.05
2019-01-19T01:25:48.402Z,24.77
2019-01-19T01:27:09.145Z,27.40
2019-01-19T01:28:51.623Z,21.00
2019-01-19T01:30:20.153Z,22.70
2019-01-19T01:31:44.108Z,22.60
2019-01-19T01:33:39.717Z,22.52
2019-01-19T01:35:16.045Z,22.27
2019-01-19T01:36:58.538Z,20.77
2019-01-19T01:38:47.621Z,20.77
2019-01-19T01:40:35.239Z,21.02
2019-01-19T01:42:06.306Z,22.40
2019-01-19T01:43:41.723Z,22.35
2019-01-19T01:45:39.736Z,21.57
2019-01-19T01:47:22.176Z,22.02
2019-01-19T01:49:08.347Z,21.57
2019-01-19T01:50:46.865Z,19.10
2019-01-19T01:52:39.403Z,19.62
2019-01-19T01:54:05.341Z,20.95
2019-01-19T01:55:27.017Z,20.88
2019-01-19T01:56:32.049Z,21.20
2019-01-19T01:58:02.174Z,20.00
2019-01-19T01:59:28.084Z,22.95
2019-01-19T02:00:53.598Z,22.52
2019-01-19T02:02:26.233Z,21.20
2019-01-19T02:03:56.846Z,23.90
2019-01-19T02:05:26.865Z,22.20
2019-01-19T02:07:08.076Z,22.25
2019-01-19T02:08:35.714Z,22.90
2019-01-19T02:10:18.258Z,23.35
2019-01-19T02:12:19.563Z,22.93
2019-01-19T02:14:23.470Z,23.10
2019-01-19T02:16:03.174Z,21.82
2019-01-19T02:17:42.556Z,24.12
2019-01-19T02:19:32.010Z,23.42
2019-01-19T02:21:08.959Z,23.87
2019-01-19T02:22:32.842Z,24.07
2019-01-19T02:24:01.388Z,25.70
2019-01-19T02:25:44.452Z,24.10
2019-01-19T02:27:25.854Z,24.37
2019-01-19T02:29:14.107Z,24.57
2019-01-19T02:30:31.666Z,25.85
2019-01-19T02:32:02.054Z,26.10
2019-01-19T02:33:49.622Z,22.75
2019-01-19T02:35:32.324Z,23.70
2019-01-19T02:37:21.488Z,23.12
2019-01-19T02:39:03.081Z,23.95
2019-01-19T02:40:33.161Z,23.50
2019-01-19T02:42:14.037Z,23.90
2019-01-19T02:43:56.379Z,23.87
2019-01-19T02:45:27.508Z,23.65
2019-01-19T02:47:07.148Z,22.85
2019-01-19T02:48:44.889Z,25.05
2019-01-19T02:50:27.066Z,24.63
2019-01-19T02:52:11.156Z,23.80
2019-01-19T02:54:05.468Z,24.63
2019-01-19T02:55:54.724Z,22.85
2019-01-19T02:57:29.677Z,24.15
2019-01-19T02:58:45.753Z,23.55
2019-01-19T03:00:45.578Z,23.00
2019-01-19T03:02:31.364Z,23.62
2019-01-19T03:03:59.756Z,23.02
2019-01-19T03:05:40.392Z,22.45
2019-01-19T03:07:41.007Z,21.73
2019-01-19T03:09:18.089Z,22.80
2019-01-19T03:10:46.680Z,23.05
2019-01-19T03:12:46.974Z,24.65
2019-01-19T03:14:26.397Z,23.45
2019-01-19T03:16:15.922Z,22.82
2019-01-19T03:18:17.461Z,23.42
2019-01-19T03:19:59.815Z,22.30
2019-01-19T03:21:29.541Z,22.40
2019-01-19T03:23:11.942Z,21.80
2019-01-19T03:24:40.009Z,22.20
2019-01-19T03:26:29.396Z,21.12
2019-01-19T03:27:42.072Z,21.35
2019-01-19T03:29:19.896Z,22.40
2019-01-19T03:30:58.669Z,21.65
2019-01-19T03:32:46.424Z,22.60
2019-01-19T03:34:19.411Z,21.52
2019-01-19T03:36:14.342Z,22.32
2019-01-19T03:38:00.674Z,21.10
2019-01-19T03:40:04.865Z,22.02
2019-01-19T03:41:53.181Z,20.77
2019-01-19T03:43:31.025Z,21.33
2019-01-19T03:44:51.204Z,20.15
2019-01-19T03:46:35.753Z,22.22
2019-01-19T03:48:27.681Z,20.40
2019-01-19T03:50:12.577Z,20.95
2019-01-19T03:51:32.528Z,21.57
2019-01-19T03:53:08.843Z,20.20
2019-01-19T03:54:54.698Z,20.17
2019-01-19T03:56:24.528Z,19.82
2019-01-19T03:58:10.541Z,21.00
2019-01-19T03:59:49.400Z,19.35
2019-01-19T04:01:35.316Z,20.37
2019-01-19T04:03:42.553Z,20.68
2019-01-19T04:05:18.051Z,22.27
2019-01-19T04:06:51.341Z,21.48
2019-01-19T04:08:37.471Z,21.60
2019-01-19T04:10:24.769Z,21.00
2019-01-19T04:12:13.053Z,20.75
2019-01-19T04:13:58.238Z,20.72
2019-01-19T04:15:13.236Z,20.50
2019-01-19T04:16:49.039Z,22.02
2019-01-19T04:18:12.846Z,20.85
2019-01-19T04:19:37.853Z,20.40
2019-01-19T04:21:20.646Z,22.25
2019-01-19T04:22:36.415Z,21.20
2019-01-19T04:23:44.901Z,21.77
2019-01-19T04:25:26.873Z,21.25
2019-01-19T04:26:38.360Z,22.32
2019-01-19T04:27:43.450Z,23.27
2019-01-19T04:28:48.876Z,22.77
2019-01-19T04:29:54.037Z,23.30
2019-01-19T04:30:59.225Z,23.50
2019-01-19T04:32:04.303Z,22.90
2019-01-19T04:33:10.285Z,21.82
2019-01-19T04:34:15.506Z,20.95
2019-01-19T04:35:20.531Z,22.13
2019-01-19T04:36:25.825Z,21.42
2019-01-19T04:37:31.000Z,23.65
2019-01-19T04:38:37.693Z,21.40
2019-01-19T04:39:42.711Z,22.27
2019-01-19T04:40:47.797Z,20.88
2019-01-19T04:41:52.845Z,20.95
2019-01-19T04:42:57.973Z,22.55
2019-01-19T04:44:03.087Z,21.33
2019-01-19T04:45:08.221Z,22.02
2019-01-19T04:46:13.312Z,22.25
2019-01-19T04:47:18.446Z,22.93
2019-01-19T04:48:23.673Z,21.52
2019-01-19T04:49:28.693Z,21.27
2019-01-19T04:50:33.729Z,20.72
2019-01-19T04:51:38.880Z,21.50
2019-01-19T04:52:43.898Z,21.48
2019-01-19T04:53:48.987Z,21.50
2019-01-19T04:54:54.034Z,21.52
2019-01-19T04:55:59.085Z,22.22
2019-01-19T04:57:04.131Z,23.30
2019-01-19T04:58:09.174Z,21.60
2019-01-19T04:59:14.191Z,22.25
2019-01-19T05:00:19.792Z,21.07
2019-01-19T05:01:24.796Z,22.95
2019-01-19T05:02:29.834Z,21.62
2019-01-19T05:03:34.862Z,21.70
2019-01-19T05:04:39.983Z,22.10
2019-01-19T05:05:45.129Z,21.87
2019-01-19T05:06:50.236Z,23.02
2019-01-19T05:07:55.267Z,21.42
2019-01-19T05:09:00.401Z,21.52
2019-01-19T05:10:06.545Z,22.05
2019-01-19T05:11:11.632Z,21.77
2019-01-19T05:12:16.753Z,22.65
2019-01-19T05:13:22.197Z,21.87
2019-01-19T05:14:27.279Z,22.60
2019-01-19T05:15:32.297Z,21.10
2019-01-19T05:16:37.324Z,21.45
2019-01-19T05:17:42.731Z,22.82
2019-01-19T05:18:47.786Z,22.20
2019-01-19T05:19:52.821Z,22.80
2019-01-19T05:20:57.943Z,22.73
2019-01-19T05:22:03.072Z,22.15
2019-01-19T05:23:08.196Z,21.80
2019-01-19T05:24:13.296Z,23.10
2019-01-19T05:25:18.418Z,22.05
2019-01-19T05:26:23.557Z,22.52
2019-01-19T05:27:28.591Z,23.83
2019-01-19T05:28:33.648Z,22.20
2019-01-19T05:29:38.692Z,22.82
2019-01-19T05:30:43.783Z,24.02
2019-01-19T05:31:48.789Z,22.42
2019-01-19T05:32:53.902Z,23.70
2019-01-19T05:33:58.952Z,23.50
2019-01-19T05:35:04.675Z,23.57
2019-01-19T05:36:09.679Z,22.62
2019-01-19T05:37:14.692Z,22.15
2019-01-19T05:38:19.745Z,23.30
2019-01-19T05:39:24.863Z,22.30
2019-01-19T05:40:29.889Z,21.75
2019-01-19T05:41:34.991Z,21.30
2019-01-19T05:42:40.210Z,22.65
2019-01-19T05:43:45.236Z,22.40
2019-01-19T05:44:50.350Z,22.82
2019-01-19T05:45:55.441Z,22.77
2019-01-19T05:47:00.471Z,20.80
2019-01-19T05:48:05.634Z,20.65
2019-01-19T05:49:10.734Z,21.25
2019-01-19T05:50:18.260Z,20.90
2019-01-19T05:51:23.363Z,21.80
2019-01-19T05:52:28.381Z,22.00
2019-01-19T05:53:33.492Z,21.45
2019-01-19T05:54:38.508Z,19.75
2019-01-19T05:55:43.531Z,20.92
2019-01-19T05:56:48.569Z,20.70
2019-01-19T05:57:53.598Z,19.87
2019-01-19T05:58:58.630Z,21.65
2019-01-19T06:00:05.056Z,19.02
2019-01-19T06:01:10.184Z,18.90
2019-01-19T06:02:15.264Z,19.82
2019-01-19T06:03:20.280Z,19.60
2019-01-19T06:04:25.309Z,20.80
2019-01-19T06:05:30.331Z,20.25
2019-01-19T06:06:35.352Z,19.73
2019-01-19T06:07:41.592Z,22.70
2019-01-19T06:08:48.106Z,22.15
2019-01-19T06:09:53.209Z,22.77
2019-01-19T06:10:58.342Z,22.87
2019-01-19T06:12:03.445Z,21.27
2019-01-19T06:13:08.549Z,21.65
2019-01-19T06:14:13.670Z,20.10
2019-01-19T06:15:18.714Z,21.35
2019-01-19T06:16:23.834Z,21.75
2019-01-19T06:17:28.952Z,21.60
2019-01-19T06:18:35.086Z,23.00
2019-01-19T06:19:40.356Z,24.20
2019-01-19T06:20:45.477Z,25.68
2019-01-19T06:21:55.194Z,26.02
2019-01-19T06:23:00.321Z,26.90
2019-01-19T06:24:05.533Z,25.72
2019-01-19T06:25:11.575Z,23.55
2019-01-19T06:26:16.702Z,26.37
2019-01-19T06:27:21.805Z,23.18
2019-01-19T06:28:26.887Z,21.52
2019-01-19T06:29:32.003Z,28.32
2019-01-19T06:30:37.269Z,24.18
2019-01-19T06:31:42.320Z,21.25
2019-01-19T06:32:47.550Z,20.97
2019-01-19T06:33:52.672Z,21.00
2019-01-19T06:34:57.793Z,20.25
2019-01-19T06:36:02.914Z,20.48
2019-01-19T06:37:08.077Z,22.73
2019-01-19T06:38:13.097Z,19.23
2019-01-19T06:39:18.137Z,20.80
2019-01-19T06:40:23.175Z,20.00
2019-01-19T06:41:28.287Z,20.40
2019-01-19T06:42:33.436Z,22.22
2019-01-19T06:43:38.555Z,22.27
2019-01-19T06:44:43.660Z,21.10
2019-01-19T06:45:48.749Z,21.17
2019-01-19T06:46:53.785Z,24.00
2019-01-19T06:47:58.811Z,25.35
2019-01-19T06:49:03.899Z,24.47
2019-01-19T06:50:11.209Z,22.85
2019-01-19T06:51:16.262Z,23.10
2019-01-19T06:52:21.360Z,24.43
2019-01-19T06:53:27.612Z,23.65
2019-01-19T06:54:32.914Z,22.37
2019-01-19T06:55:38.245Z,21.85
2019-01-19T06:56:43.357Z,22.60
2019-01-19T06:57:48.467Z,24.75
2019-01-19T06:58:53.593Z,23.18
2019-01-19T06:59:58.709Z,23.02
2019-01-19T07:01:03.873Z,30.10
2019-01-19T07:02:08.918Z,40.30
2019-01-19T07:03:14.012Z,30.97
2019-01-19T07:04:19.108Z,37.33
2019-01-19T07:05:24.138Z,28.42
2019-01-19T07:06:29.259Z,31.33
2019-01-19T07:07:34.377Z,25.35
2019-01-19T07:08:39.478Z,23.40
2019-01-19T07:09:44.583Z,25.00
2019-01-19T07:10:49.720Z,19.73
2019-01-19T07:11:54.951Z,24.05
2019-01-19T07:13:00.073Z,23.83
2019-01-19T07:14:06.097Z,24.00
2019-01-19T07:15:11.969Z,24.87
2019-01-19T07:16:17.003Z,25.65
2019-01-19T07:17:22.131Z,25.30
2019-01-19T07:18:27.250Z,26.65
2019-01-19T07:19:32.268Z,24.95
2019-01-19T07:20:37.372Z,25.08
2019-01-19T07:21:42.488Z,23.92
2019-01-19T07:22:47.615Z,24.98
2019-01-19T07:23:52.750Z,21.93
2019-01-19T07:24:57.862Z,23.40
2019-01-19T07:26:02.896Z,23.73
2019-01-19T07:27:07.940Z,22.45
2019-01-19T07:28:13.038Z,24.72
2019-01-19T07:29:18.057Z,24.25
2019-01-19T07:30:23.094Z,24.67
2019-01-19T07:31:28.292Z,22.90
2019-01-19T07:32:33.540Z,23.35
2019-01-19T07:33:38.616Z,21.90
2019-01-19T07:34:43.743Z,21.02
2019-01-19T07:35:48.801Z,21.15
2019-01-19T07:36:53.880Z,20.70
2019-01-19T07:37:59.000Z,20.05
2019-01-19T07:39:06.369Z,20.15
2019-01-19T07:40:13.673Z,19.92
2019-01-19T07:41:18.777Z,19.40
2019-01-19T07:42:23.876Z,18.77
2019-01-19T07:43:29.299Z,18.40
2019-01-19T07:44:34.361Z,17.75
2019-01-19T07:45:39.456Z,17.40
2019-01-19T07:46:44.552Z,19.23
2019-01-19T07:47:49.737Z,18.50
2019-01-19T07:48:54.808Z,18.55
2019-01-19T07:49:59.912Z,18.57
2019-01-19T07:51:05.042Z,17.32
2019-01-19T07:52:10.180Z,15.00
2019-01-19T07:53:15.304Z,15.20
2019-01-19T07:54:20.352Z,13.28
2019-01-19T07:55:25.491Z,14.10
2019-01-19T07:56:30.645Z,15.08
2019-01-19T07:57:35.763Z,14.55
2019-01-19T07:58:40.893Z,11.33
2019-01-19T07:59:46.031Z,12.45
2019-01-19T08:00:51.072Z,11.63
2019-01-19T08:01:56.212Z,10.63
2019-01-19T08:03:01.333Z,11.05
2019-01-19T08:04:06.493Z,9.83
2019-01-19T08:05:11.749Z,9.73
2019-01-19T08:06:16.880Z,10.20
2019-01-19T08:07:22.076Z,10.23
2019-01-19T08:08:27.108Z,9.70
2019-01-19T08:09:32.249Z,9.95
2019-01-19T08:10:37.348Z,9.50
2019-01-19T08:11:42.622Z,9.75
2019-01-19T08:12:47.774Z,10.70
2019-01-19T08:13:52.913Z,9.98
2019-01-19T08:14:58.135Z,10.75
2019-01-19T08:16:03.233Z,9.73
2019-01-19T08:17:09.459Z,10.90
2019-01-19T08:18:14.718Z,9.53
2019-01-19T08:19:19.797Z,10.68
2019-01-19T08:20:24.897Z,11.12
2019-01-19T08:21:30.063Z,9.90
2019-01-19T08:22:35.101Z,9.90
2019-01-19T08:24:07.907Z,9.78
2019-01-19T08:25:14.571Z,8.80
2019-01-19T08:26:19.889Z,11.00
2019-01-19T08:27:25.017Z,9.85
2019-01-19T08:28:30.147Z,10.50
2019-01-19T08:29:35.322Z,9.33
2019-01-19T08:30:40.361Z,9.75
2019-01-19T08:31:45.521Z,9.30
2019-01-19T08:32:50.809Z,9.40
2019-01-19T08:33:56.038Z,9.98
2019-01-19T08:35:01.334Z,8.78
2019-01-19T08:36:06.624Z,8.88
2019-01-19T08:37:11.746Z,9.20
2019-01-19T08:38:16.865Z,8.40
2019-01-19T08:39:22.014Z,9.63
2019-01-19T08:40:29.725Z,9.20
2019-01-19T08:41:34.856Z,8.45
2019-01-19T08:42:40.165Z,9.05
2019-01-19T08:43:51.849Z,9.65
2019-01-19T08:44:57.103Z,8.35
2019-01-19T08:46:03.309Z,8.45
2019-01-19T08:47:08.636Z,9.50
2019-01-19T08:48:13.844Z,9.25
2019-01-19T08:49:18.936Z,8.58
2019-01-19T08:50:24.085Z,9.28
2019-01-19T08:51:29.271Z,8.98
2019-01-19T08:52:34.353Z,8.50
2019-01-19T08:53:39.451Z,9.53
2019-01-19T08:54:44.559Z,9.00
2019-01-19T08:55:49.689Z,8.25
2019-01-19T08:56:54.899Z,8.33
2019-01-19T08:58:00.052Z,8.43
2019-01-19T08:59:05.324Z,8.30
2019-01-19T09:00:13.966Z,8.08
2019-01-19T09:01:19.143Z,8.60
2019-01-19T09:02:24.247Z,8.30
2019-01-19T09:03:29.356Z,8.43
2019-01-19T09:04:34.448Z,8.75
2019-01-19T09:05:39.554Z,8.20
2019-01-19T09:06:44.707Z,8.15
2019-01-19T09:07:49.754Z,8.15
2019-01-19T09:08:54.905Z,8.50
2019-01-19T09:10:00.238Z,7.83
2019-01-19T09:11:05.425Z,8.15
2019-01-19T09:12:10.461Z,8.50
2019-01-19T09:13:15.547Z,7.72
2019-01-19T09:14:20.670Z,8.15
2019-01-19T09:15:25.802Z,7.50
2019-01-19T09:16:30.857Z,7.92
2019-01-19T09:17:35.945Z,7.25
2019-01-19T09:18:41.104Z,8.18
2019-01-19T09:19:46.205Z,7.20
2019-01-19T09:20:51.412Z,7.20
2019-01-19T09:21:56.485Z,7.37
2019-01-19T09:23:06.474Z,7.45
2019-01-19T09:24:28.885Z,7.33
2019-01-19T09:25:34.016Z,7.85
2019-01-19T09:26:39.186Z,6.53
2019-01-19T09:27:44.532Z,7.60
2019-01-19T09:28:49.593Z,7.35
2019-01-19T09:29:54.697Z,7.15
2019-01-19T09:30:59.819Z,7.58
2019-01-19T09:32:05.170Z,7.78
2019-01-19T09:33:10.346Z,7.40
2019-01-19T09:34:15.389Z,7.08
2019-01-19T09:35:20.517Z,7.20
2019-01-19T09:36:25.631Z,7.22
2019-01-19T09:37:31.754Z,8.15
2019-01-19T09:38:36.788Z,8.10
2019-01-19T09:39:41.834Z,8.15
2019-01-19T09:40:47.019Z,7.45
2019-01-19T09:41:52.198Z,7.97
2019-01-19T09:42:57.328Z,8.10
2019-01-19T09:44:03.489Z,8.38
2019-01-19T09:45:09.057Z,7.65
2019-01-19T09:46:14.179Z,7.70
2019-01-19T09:47:19.320Z,7.75
2019-01-19T09:48:24.473Z,8.20
2019-01-19T09:49:29.581Z,8.33
2019-01-19T09:50:35.157Z,8.98
2019-01-19T09:51:40.274Z,9.05
2019-01-19T09:52:45.498Z,8.35
2019-01-19T09:53:50.617Z,8.55
2019-01-19T09:54:55.749Z,8.68
2019-01-19T09:56:00.836Z,8.78
2019-01-19T09:57:06.233Z,9.13
2019-01-19T09:58:11.413Z,8.63
2019-01-19T09:59:16.491Z,9.33
2019-01-19T10:00:21.724Z,8.50
2019-01-19T10:01:26.833Z,9.03
2019-01-19T10:02:32.039Z,9.10
2019-01-19T10:03:37.178Z,9.10
2019-01-19T10:04:42.212Z,9.20
2019-01-19T10:05:47.338Z,9.28
2019-01-19T10:06:52.464Z,7.85
2019-01-19T10:07:57.588Z,10.00
2019-01-19T10:09:05.684Z,9.73
2019-01-19T10:10:11.843Z,9.40
2019-01-19T10:11:16.967Z,9.08
2019-01-19T10:12:22.078Z,9.40
2019-01-19T10:13:27.209Z,9.70
2019-01-19T10:14:32.324Z,9.40
2019-01-19T10:15:37.501Z,9.60
2019-01-19T10:16:42.542Z,9.70
2019-01-19T10:17:47.563Z,10.10
2019-01-19T10:18:52.925Z,9.85
2019-01-19T10:19:58.097Z,9.20
2019-01-19T10:21:03.244Z,9.38
2019-01-19T10:22:08.436Z,10.90
2019-01-19T10:23:13.505Z,10.28
2019-01-19T10:24:18.634Z,10.03
2019-01-19T10:25:23.690Z,10.03
2019-01-19T10:26:28.835Z,11.10
2019-01-19T10:27:37.488Z,10.25
2019-01-19T10:28:41.524Z,11.22
2019-01-19T10:29:46.601Z,10.45
2019-01-19T10:30:51.704Z,10.95
2019-01-19T10:31:56.829Z,11.15
2019-01-19T10:33:03.153Z,11.10
2019-01-19T10:34:08.316Z,11.10
2019-01-19T10:35:13.431Z,10.38
2019-01-19T10:36:18.481Z,11.30
2019-01-19T10:37:23.613Z,11.83
2019-01-19T10:38:28.745Z,10.90
2019-01-19T10:39:33.866Z,11.63
2019-01-19T10:40:38.984Z,12.68
2019-01-19T10:41:44.051Z,12.95
2019-01-19T10:42:49.088Z,13.03
2019-01-19T10:43:54.103Z,12.45
2019-01-19T10:44:59.295Z,12.93
2019-01-19T10:46:04.509Z,12.30
2019-01-19T10:47:09.684Z,13.20
2019-01-19T10:48:14.810Z,12.50
2019-01-19T10:49:19.924Z,12.30
2019-01-19T10:50:24.976Z,12.85
2019-01-19T10:51:30.124Z,13.25
2019-01-19T10:52:35.235Z,12.55
2019-01-19T10:53:40.252Z,13.80
2019-01-19T10:54:45.272Z,13.58
2019-01-19T10:55:50.331Z,13.35
2019-01-19T10:56:55.411Z,13.22
2019-01-19T10:58:00.501Z,13.32
2019-01-19T10:59:05.616Z,13.98
2019-01-19T11:00:16.966Z,14.00
2019-01-19T11:01:22.178Z,13.60
2019-01-19T11:02:27.281Z,13.40
2019-01-19T11:03:32.422Z,13.28
2019-01-19T11:04:37.434Z,14.80
2019-01-19T11:05:42.514Z,14.38
2019-01-19T11:06:47.801Z,14.93
2019-01-19T11:07:53.058Z,14.95
2019-01-19T11:08:59.119Z,14.68
2019-01-19T11:10:04.752Z,15.23
2019-01-19T11:11:09.798Z,15.32
2019-01-19T11:12:14.905Z,14.30
2019-01-19T11:13:20.081Z,14.65
2019-01-19T11:14:25.239Z,14.20
2019-01-19T11:15:30.325Z,14.15
2019-01-19T11:16:35.455Z,14.13
2019-01-19T11:17:40.537Z,12.78
2019-01-19T11:18:45.655Z,14.30
2019-01-19T11:19:50.780Z,14.83
2019-01-19T11:20:55.845Z,14.33
2019-01-19T11:22:00.916Z,15.23
2019-01-19T11:23:06.082Z,13.43
2019-01-19T11:24:11.176Z,14.25
2019-01-19T11:25:16.298Z,15.45
2019-01-19T11:26:21.341Z,15.50
2019-01-19T11:27:26.491Z,13.72
2019-01-19T11:28:31.651Z,14.13
2019-01-19T11:29:36.715Z,15.93
2019-01-19T11:30:41.828Z,14.40
2019-01-19T11:31:46.876Z,12.80
2019-01-19T11:32:52.010Z,15.25
2019-01-19T11:33:57.048Z,17.00
2019-01-19T11:35:02.206Z,14.63
2019-01-19T11:36:07.316Z,15.95
2019-01-19T11:37:12.377Z,15.90
2019-01-19T11:38:20.221Z,15.35
2019-01-19T11:39:24.232Z,15.28
2019-01-19T11:40:32.356Z,16.40
2019-01-19T11:41:37.458Z,14.80
2019-01-19T11:42:44.033Z,16.02
2019-01-19T11:43:49.225Z,15.88
2019-01-19T11:44:54.264Z,16.00
2019-01-19T11:45:59.331Z,16.30
2019-01-19T11:47:04.377Z,14.50
2019-01-19T11:48:09.512Z,15.45
2019-01-19T11:49:14.544Z,14.73
2019-01-19T11:50:19.656Z,15.90
2019-01-19T11:51:24.664Z,15.72
2019-01-19T11:52:29.788Z,16.00
2019-01-19T11:53:34.851Z,16.55
2019-01-19T11:54:40.151Z,16.60
2019-01-19T11:55:46.030Z,15.85
2019-01-19T11:56:51.290Z,16.77
2019-01-19T11:57:59.284Z,16.95
2019-01-19T11:59:04.329Z,16.60
2019-01-19T12:00:15.738Z,17.77
2019-01-19T12:01:21.854Z,16.55
2019-01-19T12:02:26.965Z,16.50
2019-01-19T12:03:32.153Z,15.53
2019-01-19T12:04:37.182Z,15.65
2019-01-19T12:05:42.257Z,17.20
2019-01-19T12:06:47.382Z,16.90
2019-01-19T12:07:52.517Z,18.27
2019-01-19T12:08:57.649Z,17.23
2019-01-19T12:10:02.761Z,18.05
2019-01-19T12:11:07.889Z,17.10
2019-01-19T12:12:12.917Z,17.30
2019-01-19T12:13:18.035Z,17.45
2019-01-19T12:14:23.087Z,16.75
2019-01-19T12:15:28.967Z,16.87
2019-01-19T12:16:34.185Z,17.98
2019-01-19T12:17:39.229Z,17.95
2019-01-19T12:18:44.340Z,17.30
2019-01-19T12:19:49.366Z,17.65
2019-01-19T12:20:54.473Z,18.20
2019-01-19T12:21:59.522Z,17.82
2019-01-19T12:23:04.612Z,17.17
2019-01-19T12:24:09.723Z,17.17
2019-01-19T12:25:16.350Z,16.50
2019-01-19T12:26:21.493Z,17.55
2019-01-19T12:27:26.536Z,18.25
2019-01-19T12:28:31.636Z,18.25
2019-01-19T12:29:36.713Z,17.37
2019-01-19T12:30:41.732Z,16.55
2019-01-19T12:31:46.736Z,18.05
2019-01-19T12:32:51.752Z,16.57
2019-01-19T12:33:56.866Z,14.55
2019-01-19T12:35:01.992Z,17.62
2019-01-19T12:36:06.996Z,17.95
2019-01-19T12:37:12.103Z,19.55
2019-01-19T12:38:17.148Z,18.25
2019-01-19T12:39:22.231Z,19.02
2019-01-19T12:40:28.066Z,17.65
2019-01-19T12:41:33.091Z,18.70
2019-01-19T12:42:38.206Z,19.27
2019-01-19T12:43:43.992Z,19.32
2019-01-19T12:44:49.118Z,19.32
2019-01-19T12:46:14.668Z,18.52
2019-01-19T12:47:19.728Z,19.27
2019-01-19T12:48:24.868Z,17.70
2019-01-19T12:49:30.012Z,18.77
2019-01-19T12:50:35.123Z,20.12
2019-01-19T12:51:40.240Z,19.10
2019-01-19T12:52:45.299Z,19.62
2019-01-19T12:53:50.324Z,19.07
2019-01-19T12:54:55.359Z,20.30
2019-01-19T12:56:00.626Z,18.75
2019-01-19T12:57:05.672Z,21.17
2019-01-19T12:58:10.967Z,21.23
2019-01-19T12:59:16.089Z,19.27
2019-01-19T13:00:23.513Z,19.87
2019-01-19T13:01:28.632Z,20.00
2019-01-19T13:02:33.849Z,20.08
2019-01-19T13:03:38.947Z,19.77
2019-01-19T13:04:43.989Z,19.55
2019-01-19T13:06:22.585Z,18.50
2019-01-19T13:07:27.726Z,19.32
2019-01-19T13:08:34.470Z,18.85
2019-01-19T13:09:52.393Z,18.60
2019-01-19T13:11:07.086Z,19.73
2019-01-19T13:12:34.249Z,19.92
2019-01-19T13:13:46.617Z,19.82
2019-01-19T13:15:04.149Z,18.80
2019-01-19T13:17:02.493Z,18.77
2019-01-19T13:18:54.745Z,19.60
2019-01-19T13:20:23.139Z,19.27
2019-01-19T13:22:05.196Z,18.52
2019-01-19T13:23:45.316Z,18.65
2019-01-19T13:25:28.838Z,19.35
2019-01-19T13:27:04.417Z,20.37
2019-01-19T13:28:46.302Z,18.70
2019-01-19T13:30:29.208Z,18.12
2019-01-19T13:32:29.494Z,18.20
2019-01-19T13:34:10.348Z,18.27
2019-01-19T13:36:09.853Z,18.27
2019-01-19T13:37:57.613Z,17.98
2019-01-19T13:40:01.964Z,18.25
2019-01-19T13:42:09.763Z,18.52
2019-01-19T13:43:42.599Z,19.92
2019-01-19T13:45:27.292Z,20.00
2019-01-19T13:47:19.564Z,18.95
2019-01-19T13:49:09.487Z,19.30
2019-01-19T13:51:10.665Z,17.95
2019-01-19T13:52:47.047Z,18.60
2019-01-19T13:54:53.883Z,19.87
2019-01-19T13:56:40.006Z,18.05
2019-01-19T13:58:18.151Z,18.35
2019-01-19T13:59:58.904Z,18.37
2019-01-19T14:01:34.885Z,17.40
2019-01-19T14:03:24.929Z,18.62
2019-01-19T14:04:55.331Z,18.80
2019-01-19T14:06:59.813Z,17.60
2019-01-19T14:08:49.679Z,18.98
2019-01-19T14:10:34.849Z,17.77
2019-01-19T14:12:21.496Z,20.23
2019-01-19T14:14:28.832Z,18.82
2019-01-19T14:16:09.804Z,19.37
2019-01-19T14:17:51.971Z,19.07
2019-01-19T14:19:44.214Z,18.50
2019-01-19T14:21:26.088Z,17.52
2019-01-19T14:23:42.974Z,21.93
2019-01-19T14:25:32.085Z,17.60
2019-01-19T14:27:02.489Z,18.95
2019-01-19T14:29:04.111Z,17.87
2019-01-19T14:30:53.248Z,16.35
2019-01-19T14:32:42.196Z,17.12
2019-01-19T14:34:22.837Z,16.85
2019-01-19T14:35:50.753Z,16.95
2019-01-19T14:37:12.393Z,17.90
2019-01-19T14:39:04.529Z,18.02
2019-01-19T14:40:42.416Z,18.15
2019-01-19T14:42:00.362Z,18.70
2019-01-19T14:43:44.697Z,17.73
2019-01-19T14:45:29.826Z,20.00
2019-01-19T14:47:09.370Z,18.70
2019-01-19T14:49:07.822Z,18.82
2019-01-19T14:50:51.091Z,18.98
2019-01-19T14:52:17.277Z,19.92
2019-01-19T14:53:48.529Z,18.62
2019-01-19T14:55:25.774Z,19.65
2019-01-19T14:56:59.264Z,19.80
2019-01-19T14:58:15.048Z,18.12
2019-01-19T14:59:56.036Z,19.77
2019-01-19T15:01:22.754Z,20.57
2019-01-19T15:03:23.748Z,19.17
2019-01-19T15:04:56.263Z,19.15
2019-01-19T15:06:31.113Z,19.23
2019-01-19T15:08:24.480Z,18.75
2019-01-19T15:09:56.612Z,18.67
2019-01-19T15:11:44.798Z,17.87
2019-01-19T15:13:12.939Z,19.50
2019-01-19T15:14:36.060Z,18.62
2019-01-19T15:16:11.465Z,18.40
2019-01-19T15:17:48.752Z,18.87
2019-01-19T15:19:31.334Z,18.50
2019-01-19T15:21:18.070Z,19.62
2019-01-19T15:22:48.146Z,19.07
2019-01-19T15:24:08.894Z,19.42
2019-01-19T15:26:07.061Z,19.48
2019-01-19T15:28:08.442Z,19.17
2019-01-19T15:29:50.453Z,19.25
2019-01-19T15:31:18.742Z,19.50
2019-01-19T15:32:38.670Z,19.20
2019-01-19T15:34:00.849Z,19.40
2019-01-19T15:35:39.591Z,19.23
2019-01-19T15:37:34.959Z,19.15
2019-01-19T15:39:11.037Z,19.92
2019-01-19T15:40:55.292Z,18.17
2019-01-19T15:42:27.994Z,19.40
2019-01-19T15:44:13.385Z,19.50
2019-01-19T15:46:01.360Z,20.00
2019-01-19T15:47:43.283Z,19.30
2019-01-19T15:49:14.616Z,21.12
2019-01-19T15:51:11.784Z,21.12
2019-01-19T15:52:40.849Z,21.15
2019-01-19T15:53:54.241Z,19.90
2019-01-19T15:55:52.457Z,21.00
2019-01-19T15:57:31.270Z,20.20
2019-01-19T15:59:26.578Z,20.90
2019-01-19T16:01:03.786Z,20.43
2019-01-19T16:02:33.738Z,19.90
2019-01-19T16:04:35.188Z,19.67
2019-01-19T16:06:18.106Z,20.40
2019-01-19T16:08:09.374Z,21.02
2019-01-19T16:09:50.300Z,21.50
2019-01-19T16:11:11.262Z,20.90
2019-01-19T16:12:45.974Z,21.42
2019-01-19T16:14:28.018Z,21.48
2019-01-19T16:16:19.171Z,19.92
2019-01-19T16:18:07.927Z,20.65
2019-01-19T16:20:15.001Z,20.88
2019-01-19T16:21:48.940Z,21.90
2019-01-19T16:23:42.758Z,20.57
2019-01-19T16:25:19.274Z,21.60
2019-01-19T16:26:42.854Z,21.05
2019-01-19T16:28:28.602Z,20.90
2019-01-19T16:30:06.318Z,20.25
2019-01-19T16:32:08.136Z,20.37
2019-01-19T16:33:42.557Z,20.68
2019-01-19T16:35:35.229Z,22.20
2019-01-19T16:37:12.686Z,20.37
2019-01-19T16:38:59.390Z,21.12
2019-01-19T16:40:51.989Z,21.40
2019-01-19T16:42:50.744Z,21.48
2019-01-19T16:44:26.265Z,21.00
2019-01-19T16:46:03.324Z,21.75
2019-01-19T16:47:57.026Z,20.97
2019-01-19T16:49:23.423Z,21.10
2019-01-19T16:50:43.321Z,21.45
2019-01-19T16:52:12.497Z,23.12
2019-01-19T16:53:28.471Z,22.65
2019-01-19T16:54:55.808Z,23.22